Time;durP1;ratioP1;P1;durP2;ratioP2;P2;SDS_P1;SDS_P2;PMS_P1;PMS_P2;Temp;Humidity;BMP_temperature;BMP_pressure;BME280_temperature;BME280_humidity;BME280_pressure;Samples;Min_cycle;Max_cycle;Signal;HPM_P1;HPM_P2
2023/06/19 00:01:43;;;;;;;23.13;21.33;;;;;;;21.14;55.39;100106.31;5025889;28;96772;-91
2023/06/19 00:04:09;;;;;;;21.95;20.33;;;;;;;21.05;55.21;100077.72;5018693;28;96772;-91
2023/06/19 00:06:35;;;;;;;22.65;21.08;;;;;;;21.11;55.02;100079.03;5006287;28;98674;-90
2023/06/19 00:09:00;;;;;;;21.77;20.27;;;;;;;21.12;55.08;100084.28;5031591;28;97651;-91
2023/06/19 00:11:26;;;;;;;21.63;20.02;;;;;;;21.06;54.93;100071.44;5031832;28;96834;-91
2023/06/19 00:13:52;;;;;;;21.20;19.70;;;;;;;21.16;54.98;100083.03;5033280;28;96562;-91
2023/06/19 00:16:19;;;;;;;22.45;20.58;;;;;;;21.16;54.97;100076.84;5033068;28;98059;-91
2023/06/19 00:18:45;;;;;;;22.50;20.90;;;;;;;21.14;54.96;100081.47;5031378;28;98436;-91
2023/06/19 00:21:11;;;;;;;21.67;19.98;;;;;;;21.08;55.02;100074.81;5035852;28;97031;-91
2023/06/19 00:23:36;;;;;;;22.38;20.88;;;;;;;21.07;55.04;100077.63;5035860;28;97242;-91
2023/06/19 00:26:03;;;;;;;22.23;20.45;;;;;;;21.06;55.14;100073.22;5037379;28;98634;-91
2023/06/19 00:28:31;;;;;;;22.60;20.80;;;;;;;20.97;55.33;100062.38;5035350;28;98267;-91
2023/06/19 00:30:59;;;;;;;;;;;;;;;20.86;55.68;100072.22;4993551;28;97897;-91
2023/06/19 00:33:25;;;;;;;22.33;20.83;;;;;;;20.88;55.61;100072.91;5019038;28;96907;-91
2023/06/19 00:35:51;;;;;;;22.75;21.15;;;;;;;20.80;55.85;100068.22;5021434;28;98205;-93
2023/06/19 00:38:17;;;;;;;23.27;21.50;;;;;;;20.78;55.96;100068.31;5020966;28;97323;-91
2023/06/19 00:40:42;;;;;;;22.50;20.90;;;;;;;20.67;55.93;100059.50;5006079;28;96988;-92
2023/06/19 00:43:08;;;;;;;23.25;21.55;;;;;;;20.74;56.00;100074.88;5034876;28;96817;-91
2023/06/19 00:45:34;;;;;;;23.08;21.38;;;;;;;20.73;56.10;100078.50;5027972;28;97706;-91
2023/06/19 00:48:00;;;;;;;23.30;21.50;;;;;;;20.68;56.09;100078.06;5027768;28;97156;-91
2023/06/19 00:50:28;;;;;;;22.85;20.85;;;;;;;20.68;56.10;100079.84;5038949;28;97234;-91
2023/06/19 00:52:54;;;;;;;23.58;21.88;;;;;;;20.61;56.05;100065.31;5020581;28;96919;-92
2023/06/19 00:55:21;;;;;;;23.13;21.23;;;;;;;20.69;56.02;100077.06;4999923;28;98928;-91
2023/06/19 00:57:47;;;;;;;22.55;20.85;;;;;;;20.69;56.02;100070.91;5011653;28;98384;-92
2023/06/19 01:00:13;;;;;;;24.27;22.58;;;;;;;20.67;55.93;100063.00;5016816;28;96812;-91
2023/06/19 01:02:39;;;;;;;23.58;21.27;;;;;;;20.68;55.81;100066.50;5032073;28;96876;-91
2023/06/19 01:05:05;;;;;;;22.52;20.77;;;;;;;20.68;55.91;100067.38;4997610;28;98930;-92
2023/06/19 01:07:39;;;;;;;23.45;21.52;;;;;;;20.68;55.85;100070.06;5020496;28;98690;-91
2023/06/19 01:10:07;;;;;;;22.73;21.08;;;;;;;20.69;55.80;100066.41;5028182;28;96753;-91
2023/06/19 01:12:38;;;;;;;22.90;21.20;;;;;;;20.69;55.85;100082.41;5005182;28;96835;-91
2023/06/19 01:15:05;;;;;;;23.58;21.77;;;;;;;20.60;55.91;100068.97;5002123;28;100760;-91
2023/06/19 01:17:31;;;;;;;23.38;21.75;;;;;;;20.62;55.98;100070.50;5014870;28;98467;-90
2023/06/19 01:19:57;;;;;;;24.35;22.63;;;;;;;20.61;55.81;100074.16;5017446;28;96817;-92
2023/06/19 01:22:30;;;;;;;24.25;21.98;;;;;;;20.59;55.97;100073.44;5011184;28;96942;-91
2023/06/19 01:24:58;;;;;;;23.17;21.48;;;;;;;20.56;56.12;100084.34;4994237;28;97677;-91
2023/06/19 01:27:25;;;;;;;25.60;23.55;;;;;;;20.37;56.57;100066.28;5001593;28;99309;-91
2023/06/19 01:29:51;;;;;;;23.05;21.45;;;;;;;20.42;56.57;100076.56;5019294;28;96673;-91
2023/06/19 01:32:37;;;;;;;23.98;22.23;;;;;;;20.42;56.37;100071.22;5005737;28;96933;-91
2023/06/19 01:35:04;;;;;;;23.77;22.00;;;;;;;20.42;56.31;100071.22;4986338;28;99091;-92
2023/06/19 01:37:33;;;;;;;23.23;21.33;;;;;;;20.42;56.41;100069.44;5012773;28;98664;-92
2023/06/19 01:39:59;;;;;;;23.58;21.77;;;;;;;20.35;56.33;100054.88;5022618;28;96710;-92
2023/06/19 01:42:26;;;;;;;24.30;22.08;;;;;;;20.39;56.07;100059.00;4983961;28;97712;-91
2023/06/19 01:44:52;;;;;;;23.00;21.45;;;;;;;20.39;56.23;100069.66;5011916;28;98945;-91
2023/06/19 01:47:19;;;;;;;23.02;21.33;;;;;;;20.38;56.32;100075.94;5031890;28;97620;-91
2023/06/19 01:49:48;;;;;;;24.48;22.67;;;;;;;20.29;56.73;100080.19;5034390;28;96841;-91
2023/06/19 01:52:14;;;;;;;23.88;21.98;;;;;;;20.24;56.84;100070.84;5015435;28;97093;-92
2023/06/19 01:54:40;;;;;;;25.27;23.27;;;;;;;20.25;56.74;100084.06;5034430;28;98860;-91
2023/06/19 01:57:06;;;;;;;24.05;22.23;;;;;;;20.25;56.51;100075.22;5023668;28;99026;-91
2023/06/19 01:59:31;;;;;;;26.15;23.60;;;;;;;20.19;56.84;100079.22;4999581;28;96964;-90
2023/06/19 02:01:57;;;;;;;22.80;21.10;;;;;;;20.18;56.49;100080.19;4982302;28;96822;-92
2023/06/19 02:04:23;;;;;;;23.85;22.13;;;;;;;20.18;56.83;100080.19;5021254;28;98841;-91
2023/06/19 02:06:48;;;;;;;24.92;23.05;;;;;;;20.15;56.84;100072.41;5019859;28;98658;-92
2023/06/19 02:09:14;;;;;;;23.70;22.00;;;;;;;20.05;57.02;100063.47;5033151;27;98251;-90
2023/06/19 02:11:40;;;;;;;24.63;22.75;;;;;;;20.07;57.08;100067.72;5022990;28;96862;-91
2023/06/19 02:14:05;;;;;;;24.88;22.90;;;;;;;20.03;57.33;100074.22;5008690;28;99020;-91
2023/06/19 02:16:31;;;;;;;24.15;22.33;;;;;;;20.01;57.21;100072.63;5009268;28;98587;-91
2023/06/19 02:18:56;;;;;;;24.35;22.20;;;;;;;19.97;57.19;100074.69;5011455;28;96777;-91
2023/06/19 02:21:22;;;;;;;24.58;22.77;;;;;;;19.96;57.32;100072.16;5031687;28;96782;-92
2023/06/19 02:23:50;;;;;;;25.05;23.10;;;;;;;20.00;57.21;100079.78;5013656;28;98906;-91
2023/06/19 02:26:16;;;;;;;24.45;22.27;;;;;;;19.94;57.27;100056.28;5021404;28;97720;-92
2023/06/19 02:28:41;;;;;;;24.33;22.33;;;;;;;19.98;57.07;100076.38;5020302;28;96762;-91
2023/06/19 02:31:07;;;;;;;24.90;22.88;;;;;;;19.99;57.21;100080.75;5006319;28;96985;-91
2023/06/19 02:33:33;;;;;;;24.30;22.38;;;;;;;19.90;57.26;100063.69;5031672;28;98813;-91
2023/06/19 02:35:58;;;;;;;25.08;22.98;;;;;;;19.94;57.40;100074.09;5026561;28;98294;-91
2023/06/19 02:38:29;;;;;;;24.08;22.20;;;;;;;19.90;57.42;100070.81;5023294;28;97310;-93
2023/06/19 02:40:57;;;;;;;24.25;22.45;;;;;;;19.82;57.56;100071.41;5013478;28;96797;-91
2023/06/19 02:43:23;;;;;;;24.63;22.73;;;;;;;19.79;57.95;100073.47;5007021;28;100477;-91
2023/06/19 02:45:48;;;;;;;25.77;23.80;;;;;;;19.76;57.90;100058.56;5027050;28;97247;-91
2023/06/19 02:48:14;;;;;;;25.05;22.50;;;;;;;19.83;57.70;100072.25;5029365;28;97387;-92
2023/06/19 02:50:39;;;;;;;23.88;22.02;;;;;;;19.84;57.65;100080.13;5016615;28;96918;-92
2023/06/19 02:53:05;;;;;;;25.05;23.10;;;;;;;19.78;57.67;100067.28;5018751;28;98604;-91
2023/06/19 02:55:30;;;;;;;24.25;22.13;;;;;;;19.80;57.60;100070.66;5030686;28;98503;-90
2023/06/19 02:57:56;;;;;;;25.10;23.25;;;;;;;19.85;57.72;100083.63;5019810;28;96739;-91
2023/06/19 03:00:22;;;;;;;25.45;23.20;;;;;;;19.81;57.90;100084.81;5033242;28;97185;-92
2023/06/19 03:02:48;;;;;;;25.50;23.58;;;;;;;19.79;57.90;100081.44;5019722;28;98397;-92
2023/06/19 03:05:16;;;;;;;26.10;24.20;;;;;;;19.75;58.33;100080.84;5023160;28;97322;-92
2023/06/19 03:07:42;;;;;;;25.52;23.50;;;;;;;19.74;58.30;100081.78;5000314;28;96974;-91
2023/06/19 03:10:08;;;;;;;25.30;23.30;;;;;;;19.76;57.94;100085.19;5015145;28;96928;-91
2023/06/19 03:12:34;;;;;;;26.17;24.08;;;;;;;19.74;58.05;100092.44;5004799;28;100639;-90
2023/06/19 03:15:00;;;;;;;25.95;23.92;;;;;;;19.83;58.25;100096.22;5001227;28;101047;-91
2023/06/19 03:17:27;;;;;;;26.95;24.38;;;;;;;19.89;57.78;100093.06;5011454;28;96749;-91
2023/06/19 03:19:53;;;;;;;26.42;24.10;;;;;;;19.82;58.12;100078.53;5013553;28;96855;-92
2023/06/19 03:22:20;;;;;;;24.95;23.05;;;;;;;19.89;58.08;100085.09;5011813;28;98663;-91
2023/06/19 03:24:46;;;;;;;26.50;24.60;;;;;;;19.97;58.09;100096.00;5020266;28;96950;-91
2023/06/19 03:27:17;;;;;;;26.52;24.27;;;;;;;19.74;59.03;100087.09;5000918;28;97287;-91
2023/06/19 03:29:43;;;;;;;26.33;23.98;;;;;;;19.86;58.81;100095.97;5020980;28;96934;-90
2023/06/19 03:32:11;;;;;;;27.05;24.60;;;;;;;19.87;58.64;100085.22;4994539;28;100041;-92
2023/06/19 03:34:36;;;;;;;27.23;25.13;;;;;;;19.72;59.09;100078.38;4997218;28;99107;-92
2023/06/19 03:37:06;;;;;;;27.20;25.00;;;;;;;19.78;58.90;100083.25;4995931;28;96823;-91
2023/06/19 03:39:33;;;;;;;25.58;23.60;;;;;;;19.97;58.57;100084.50;5000928;28;97246;-92
2023/06/19 03:42:05;;;;;;;26.40;24.15;;;;;;;19.94;58.65;100082.94;5002738;28;99493;-91
2023/06/19 03:44:31;;;;;;;26.17;23.88;;;;;;;20.06;58.24;100076.66;5008661;28;99946;-91
2023/06/19 03:46:57;;;;;;;25.33;23.25;;;;;;;20.15;57.99;100076.91;5026578;28;96737;-91
2023/06/19 03:49:23;;;;;;;26.23;24.08;;;;;;;20.35;57.80;100081.53;5022808;28;97047;-91
2023/06/19 03:51:49;;;;;;;26.42;24.30;;;;;;;20.41;57.41;100085.53;5032140;28;99107;-92
2023/06/19 03:54:15;;;;;;;28.48;25.88;;;;;;;20.50;57.26;100066.13;5011890;28;97593;-92
2023/06/19 03:56:41;;;;;;;27.15;24.95;;;;;;;20.64;56.87;100068.59;5032211;28;96711;-91
2023/06/19 03:59:07;;;;;;;27.05;25.05;;;;;;;20.67;56.97;100078.16;5031353;28;97264;-90
2023/06/19 04:01:32;;;;;;;27.40;25.17;;;;;;;20.68;56.91;100077.19;5023977;28;98553;-93
2023/06/19 04:03:58;;;;;;;26.13;24.00;;;;;;;20.70;56.69;100075.25;5014891;28;98362;-92
2023/06/19 04:06:24;;;;;;;25.98;23.73;;;;;;;20.94;56.23;100080.41;4994989;28;96800;-92
2023/06/19 04:08:50;;;;;;;26.08;24.15;;;;;;;21.11;55.83;100081.72;4999608;28;96938;-91
2023/06/19 04:11:15;;;;;;;26.33;24.33;;;;;;;21.06;55.75;100074.09;5001067;28;98898;-91
2023/06/19 04:13:41;;;;;;;25.33;23.15;;;;;;;21.34;55.42;100090.50;5019497;28;98338;-91
2023/06/19 04:16:06;;;;;;;27.15;24.92;;;;;;;21.44;54.93;100088.81;5024038;28;96873;-91
2023/06/19 04:18:32;;;;;;;26.70;24.40;;;;;;;21.52;54.72;100072.97;5029949;28;96691;-91
2023/06/19 04:20:57;;;;;;;25.08;23.25;;;;;;;21.63;54.19;100083.59;5030234;28;98573;-92
2023/06/19 04:23:23;;;;;;;26.92;24.73;;;;;;;21.67;54.33;100089.53;5031353;28;98694;-91
2023/06/19 04:25:48;;;;;;;25.83;23.73;;;;;;;;;;5021548;28;97067;-92
2023/06/19 04:28:14;;;;;;;27.42;25.20;;;;;;;21.65;54.42;100086.16;4997201;28;96586;-91
2023/06/19 04:30:39;;;;;;;25.50;23.55;;;;;;;21.46;54.99;100084.16;5013796;28;98153;-92
2023/06/19 04:33:06;;;;;;;25.50;23.23;;;;;;;21.40;55.10;100069.50;5018799;28;98315;-92
2023/06/19 04:35:32;;;;;;;25.00;23.05;;;;;;;21.37;55.07;100082.28;5026766;28;97046;-92
2023/06/19 04:38:00;;;;;;;25.58;23.38;;;;;;;21.36;55.20;100088.56;5023590;28;96783;-91
2023/06/19 04:40:26;;;;;;;26.23;23.92;;;;;;;21.40;55.07;100098.88;5003548;28;98042;-92
2023/06/19 04:42:53;;;;;;;26.05;24.13;;;;;;;21.47;55.16;100093.91;5019019;28;98529;-92
2023/06/19 04:45:19;;;;;;;25.88;23.55;;;;;;;21.47;55.12;100088.56;5020361;28;96796;-91
2023/06/19 04:47:45;;;;;;;25.92;23.90;;;;;;;21.59;54.67;100087.53;5021209;28;96816;-92
2023/06/19 04:50:10;;;;;;;26.30;24.05;;;;;;;21.54;54.64;100100.41;5024777;28;98821;-91
2023/06/19 04:52:37;;;;;;;25.48;23.52;;;;;;;21.52;54.99;100101.50;5022222;28;98689;-92
2023/06/19 04:55:06;;;;;;;28.67;26.00;;;;;;;21.49;55.19;100102.59;5028463;28;96781;-91
2023/06/19 04:57:31;;;;;;;26.50;24.30;;;;;;;21.49;54.58;100086.59;5024883;28;97368;-91
2023/06/19 04:59:57;;;;;;;25.95;24.02;;;;;;;21.60;54.95;100097.22;5030531;28;98600;-91
2023/06/19 05:02:23;;;;;;;27.13;24.83;;;;;;;21.72;54.83;100095.34;5027678;28;98651;-92
2023/06/19 05:04:49;;;;;;;27.02;24.63;;;;;;;21.50;55.46;100101.66;5032388;28;96962;-91
2023/06/19 05:07:15;;;;;;;26.65;24.33;;;;;;;21.61;54.54;100108.75;5019679;28;97302;-92
2023/06/19 05:09:40;;;;;;;26.42;24.00;;;;;;;21.65;54.63;100115.53;5033797;28;99837;-91
2023/06/19 05:12:06;;;;;;;26.55;24.55;;;;;;;21.72;54.08;100095.34;5018154;28;98391;-92
2023/06/19 05:14:32;;;;;;;27.88;25.50;;;;;;;21.95;53.76;100117.44;5010085;28;97162;-92
2023/06/19 05:16:57;;;;;;;26.05;23.85;;;;;;;22.09;53.47;100106.44;5011109;28;96989;-92
2023/06/19 05:19:23;;;;;;;25.15;23.23;;;;;;;22.27;53.01;100117.41;5013190;28;98646;-91
2023/06/19 05:21:48;;;;;;;26.85;24.83;;;;;;;22.48;52.43;100114.69;5009964;28;97402;-91
2023/06/19 05:24:14;;;;;;;26.48;24.27;;;;;;;22.73;51.80;100099.19;5024259;28;96887;-94
2023/06/19 05:26:39;;;;;;;25.30;22.73;;;;;;;22.92;51.37;100103.72;5017192;28;97780;-93
2023/06/19 05:29:08;;;;;;;25.13;23.33;;;;;;;23.12;51.00;100104.66;5015411;28;98569;-93
2023/06/19 05:31:34;;;;;;;24.88;22.75;;;;;;;23.45;50.07;100098.09;4997534;28;98294;-92
2023/06/19 05:33:59;;;;;;;24.63;22.73;;;;;;;23.64;49.57;100092.69;5018617;28;96846;-92
2023/06/19 05:36:25;;;;;;;26.17;23.73;;;;;;;24.06;49.05;100107.66;5021765;28;97603;-92
2023/06/19 05:38:50;;;;;;;25.15;23.25;;;;;;;24.32;48.47;100126.66;5023500;28;99080;-92
2023/06/19 05:41:16;;;;;;;23.13;21.40;;;;;;;24.60;47.94;100114.97;5022521;28;97563;-92
2023/06/19 05:43:41;;;;;;;25.38;23.27;;;;;;;25.08;46.99;100126.50;5024960;27;96708;-92
2023/06/19 05:46:07;;;;;;;26.08;23.90;;;;;;;25.77;46.09;100129.53;5020385;28;96609;-92
2023/06/19 05:48:32;;;;;;;24.80;22.90;;;;;;;26.57;45.12;100116.88;5033735;28;98658;-92
2023/06/19 05:50:58;;;;;;;24.77;22.73;;;;;;;27.24;43.42;100119.69;5026926;28;97212;-92
2023/06/19 05:53:23;;;;;;;25.58;23.33;;;;;;;27.92;42.25;100118.59;5027661;28;96808;-91
2023/06/19 05:55:49;;;;;;;23.75;21.75;;;;;;;27.35;42.91;100129.31;5025979;28;97464;-92
2023/06/19 05:58:14;;;;;;;23.92;22.23;;;;;;;26.97;43.28;100120.78;5027876;28;98906;-91
2023/06/19 06:00:40;;;;;;;25.52;23.33;;;;;;;26.81;43.61;100132.31;5030641;28;97454;-92
2023/06/19 06:03:05;;;;;;;24.13;22.15;;;;;;;26.71;43.45;100134.28;5033762;28;96861;-91
2023/06/19 06:05:31;;;;;;;22.52;21.00;;;;;;;26.69;43.35;100137.13;5018973;28;97209;-91
2023/06/19 06:07:56;;;;;;;23.85;22.05;;;;;;;26.97;43.20;100148.53;5014749;28;98712;-92
2023/06/19 06:10:23;;;;;;;24.73;22.17;;;;;;;27.12;41.94;100146.06;5027592;28;97325;-91
2023/06/19 06:12:48;;;;;;;25.35;23.17;;;;;;;27.13;41.99;100146.91;5029519;28;96813;-92
2023/06/19 06:15:14;;;;;;;24.10;21.88;;;;;;;27.34;41.85;100144.63;5017714;28;96889;-92
2023/06/19 06:17:39;;;;;;;23.33;21.40;;;;;;;27.36;42.07;100152.56;5030219;28;97686;-91
2023/06/19 06:20:11;;;;;;;23.38;21.40;;;;;;;26.93;42.85;100159.78;5031580;28;98336;-92
2023/06/19 06:22:36;;;;;;;22.33;20.80;;;;;;;26.52;43.15;100144.25;5010984;28;96814;-92
2023/06/19 06:25:02;;;;;;;23.75;21.95;;;;;;;26.23;43.75;100152.63;5029622;28;96825;-92
2023/06/19 06:27:27;;;;;;;23.52;21.58;;;;;;;26.09;43.72;100159.44;5033675;28;98032;-91
2023/06/19 06:29:53;;;;;;;23.42;21.65;;;;;;;25.99;43.71;100155.97;5021226;28;98667;-94
2023/06/19 06:32:18;;;;;;;23.52;21.33;;;;;;;25.82;43.62;100165.75;5015352;28;96844;-93
2023/06/19 06:34:44;;;;;;;23.52;21.83;;;;;;;25.65;43.83;100172.78;5023398;28;97123;-91
2023/06/19 06:37:09;;;;;;;22.00;20.25;;;;;;;25.52;44.15;100165.09;5021448;28;98679;-93
2023/06/19 06:39:35;;;;;;;22.77;20.75;;;;;;;25.39;44.46;100175.34;5018567;28;98800;-92
2023/06/19 06:42:00;;;;;;;24.25;22.13;;;;;;;25.32;44.64;100173.44;5024712;28;96733;-91
2023/06/19 06:44:26;;;;;;;24.08;21.80;;;;;;;25.41;44.57;100181.44;5004094;28;97733;-93
2023/06/19 06:46:52;;;;;;;23.13;21.52;;;;;;;25.43;44.75;100162.50;5026397;28;99006;-93
2023/06/19 06:49:17;;;;;;;24.67;22.50;;;;;;;25.69;44.54;100167.97;5021071;28;97284;-92
2023/06/19 06:51:43;;;;;;;23.67;21.27;;;;;;;25.67;44.92;100175.31;5021013;28;96856;-93
2023/06/19 06:54:09;;;;;;;24.08;22.17;;;;;;;25.66;44.95;100187.94;5011244;28;98378;-92
2023/06/19 06:56:35;;;;;;;23.40;21.35;;;;;;;25.62;45.55;100183.00;5020523;28;98628;-91
2023/06/19 06:59:00;;;;;;;22.77;21.08;;;;;;;25.46;45.76;100171.09;5022265;28;98438;-92
2023/06/19 07:01:26;;;;;;;24.17;22.35;;;;;;;25.30;45.98;100185.16;5018010;28;97006;-92
2023/06/19 07:03:52;;;;;;;23.40;21.50;;;;;;;25.41;45.87;100181.44;5018984;28;96796;-92
2023/06/19 07:06:17;;;;;;;23.35;21.02;;;;;;;25.50;46.09;100185.91;5011678;28;97680;-93
2023/06/19 07:08:43;;;;;;;23.63;21.65;;;;;;;25.47;45.97;100188.06;5026673;28;98704;-92
2023/06/19 07:11:08;;;;;;;25.02;23.02;;;;;;;25.72;45.98;100183.78;5019909;28;96973;-92
2023/06/19 07:13:34;;;;;;;24.92;22.73;;;;;;;25.79;45.39;100179.47;5018255;28;96698;-93
2023/06/19 07:16:01;;;;;;;25.52;23.15;;;;;;;25.99;45.14;100177.50;5025301;28;97811;-92
2023/06/19 07:18:27;;;;;;;26.10;23.92;;;;;;;26.09;45.00;100175.56;5028248;28;98322;-93
2023/06/19 07:20:52;;;;;;;25.00;23.05;;;;;;;26.09;44.75;100180.97;5030638;28;96857;-92
2023/06/19 07:23:18;;;;;;;24.40;22.45;;;;;;;26.09;44.60;100180.09;5025242;28;96835;-92
2023/06/19 07:25:48;;;;;;;24.88;22.40;;;;;;;26.05;44.67;100170.66;5024832;28;99763;-91
2023/06/19 07:28:13;;;;;;;25.87;23.50;;;;;;;26.12;44.56;100177.94;4996574;28;98769;-92
2023/06/19 07:30:39;;;;;;;25.30;22.90;;;;;;;26.11;44.36;100176.25;4996872;28;97053;-92
2023/06/19 07:33:05;;;;;;;25.88;22.83;;;;;;;26.13;44.98;100174.25;5026464;28;97097;-93
2023/06/19 07:35:30;;;;;;;23.90;21.83;;;;;;;25.97;45.61;100177.63;5017763;28;98627;-91
2023/06/19 07:37:56;;;;;;;25.92;23.70;;;;;;;25.91;45.98;100180.94;5017242;28;98696;-68
2023/06/19 07:40:21;;;;;;;25.52;23.13;;;;;;;25.79;45.83;100179.47;5024478;28;97833;-76
2023/06/19 07:42:47;;;;;;;24.08;22.05;;;;;;;25.79;45.83;100184.00;5024390;28;96821;-75
2023/06/19 07:45:13;;;;;;;25.92;23.33;;;;;;;25.91;45.91;100182.78;5016954;28;98715;-75
2023/06/19 07:47:38;;;;;;;26.08;23.55;;;;;;;25.82;46.10;100189.06;5018563;28;98424;-75
2023/06/19 07:50:04;;;;;;;25.38;22.90;;;;;;;25.73;46.37;100169.34;5017540;28;97281;-75
2023/06/19 07:52:30;;;;;;;24.15;21.85;;;;;;;25.93;46.54;100184.34;5025289;28;96943;-74
2023/06/19 07:54:57;;;;;;;25.77;23.08;;;;;;;25.99;46.32;100182.88;5030283;28;99031;-74
2023/06/19 07:57:23;;;;;;;25.75;23.48;;;;;;;25.93;46.35;100181.66;5022569;28;98399;-76
2023/06/19 07:59:50;;;;;;;24.80;22.38;;;;;;;25.91;46.72;100182.78;5008959;28;97175;-76
2023/06/19 08:02:15;;;;;;;25.85;23.25;;;;;;;26.13;46.43;100181.47;5000928;28;97115;-77
2023/06/19 08:04:41;;;;;;;24.63;22.27;;;;;;;26.76;45.50;100178.56;5014063;28;99003;-76
2023/06/19 08:07:07;;;;;;;24.25;22.13;;;;;;;27.11;45.31;100176.69;5013519;28;98687;-76
2023/06/19 08:09:33;;;;;;;25.40;22.67;;;;;;;27.86;43.98;100176.75;5019149;28;96958;-76
2023/06/19 08:11:58;;;;;;;25.27;22.85;;;;;;;28.14;42.84;100179.97;5015663;28;96854;-76
2023/06/19 08:14:24;;;;;;;26.23;23.63;;;;;;;27.91;43.45;100179.78;5026136;28;99036;-77
2023/06/19 08:16:49;;;;;;;24.98;22.50;;;;;;;28.17;42.64;100176.09;5027011;28;98464;-76
2023/06/19 08:19:15;;;;;;;24.38;22.17;;;;;;;27.90;43.51;100172.72;5024596;28;96778;-81
2023/06/19 08:21:41;;;;;;;23.70;21.80;;;;;;;27.81;43.08;100170.16;5021845;28;97230;-76
2023/06/19 08:24:06;;;;;;;23.42;21.55;;;;;;;27.79;43.23;100169.50;5022561;28;98764;-75
2023/06/19 08:26:32;;;;;;;23.38;21.42;;;;;;;27.48;43.71;100164.69;5000156;28;98970;-75
2023/06/19 08:28:57;;;;;;;23.30;21.63;;;;;;;27.59;43.57;100161.69;5018585;28;97488;-75
2023/06/19 08:31:27;;;;;;;24.05;22.15;;;;;;;27.46;44.11;100169.41;5018727;28;96802;-75
2023/06/19 08:33:55;;;;;;;22.60;20.83;;;;;;;27.67;43.56;100171.66;5010039;27;99129;-75
2023/06/19 08:36:22;;;;;;;22.85;21.25;;;;;;;27.93;42.90;100169.69;5005270;28;100550;-75
2023/06/19 08:38:49;;;;;;;23.10;21.20;;;;;;;28.33;41.71;100161.72;5026759;28;96823;-75
2023/06/19 08:41:16;;;;;;;24.25;22.35;;;;;;;29.48;40.71;100157.59;5019410;28;96951;-75
2023/06/19 08:43:42;;;;;;;24.38;22.40;;;;;;;29.62;38.79;100153.34;5024412;28;98662;-78
2023/06/19 08:46:13;;;;;;;23.33;21.80;;;;;;;29.47;38.46;100160.50;5015869;28;98397;-75
2023/06/19 08:48:39;;;;;;;22.70;20.95;;;;;;;29.43;39.42;100151.88;5009356;28;97202;-75
2023/06/19 08:51:05;;;;;;;22.77;20.77;;;;;;;29.91;38.66;100154.47;5018819;28;98168;-75
2023/06/19 08:53:34;;;;;;;23.00;21.05;;;;;;;29.93;38.29;100150.56;5019961;28;98865;-75
2023/06/19 08:55:59;;;;;;;23.45;21.85;;;;;;;30.60;37.60;100151.59;5019975;28;98428;-75
2023/06/19 08:58:26;;;;;;;22.70;21.10;;;;;;;30.63;36.48;100156.66;5024195;28;96846;-76
2023/06/19 09:00:51;;;;;;;22.35;20.92;;;;;;;31.10;36.18;100152.75;5025949;28;96949;-75
2023/06/19 09:03:24;;;;;;;22.58;21.08;;;;;;;31.42;36.17;100162.31;5002034;28;98648;-76
2023/06/19 09:05:50;;;;;;;22.88;21.27;;;;;;;30.61;37.36;100145.19;5024370;28;98522;-76
2023/06/19 09:08:19;;;;;;;22.85;21.25;;;;;;;30.55;37.44;100149.47;5012836;28;97391;-77
2023/06/19 09:11:18;;;;;;;23.02;20.63;;;;;;;30.54;36.56;100144.22;5001668;28;96811;-75
2023/06/19 09:13:43;;;;;;;22.40;20.77;;;;;;;30.99;36.66;100145.94;4995222;28;99062;-78
2023/06/19 09:16:09;;;;;;;22.00;20.23;;;;;;;31.24;36.24;100145.59;5026650;28;98613;-78
2023/06/19 09:18:47;;;;;;;22.55;20.92;;;;;;;31.50;35.60;100134.22;5026551;27;97797;-79
2023/06/19 09:21:21;;;;;;;21.33;19.73;;;;;;;31.35;34.68;100137.81;4995046;28;96892;-77
2023/06/19 09:23:48;;;;;;;20.98;19.58;;;;;;;31.22;35.31;100134.13;5021073;28;98830;-78
2023/06/19 09:26:15;;;;;;;21.70;20.08;;;;;;;31.51;35.09;100136.75;5000354;28;99802;-78
2023/06/19 09:28:44;;;;;;;21.65;20.20;;;;;;;31.10;34.87;100139.19;5016281;28;96697;-75
2023/06/19 09:31:10;;;;;;;21.50;20.10;;;;;;;31.20;36.14;100139.72;5023718;28;96737;-75
2023/06/19 09:33:37;;;;;;;21.38;19.70;;;;;;;31.40;36.25;100137.25;5019873;28;99034;-74
2023/06/19 09:36:05;;;;;;;20.35;18.73;;;;;;;31.25;34.75;100139.97;5018354;28;98488;-74
2023/06/19 09:38:33;;;;;;;22.35;20.45;;;;;;;31.37;34.75;100129.50;5022781;28;96909;-75
2023/06/19 09:41:01;;;;;;;20.45;19.05;;;;;;;31.28;32.60;100136.06;5007550;28;97584;-72
2023/06/19 09:43:36;;;;;;;21.33;19.92;;;;;;;31.24;32.65;100132.91;5023487;28;98722;-72
2023/06/19 09:46:02;;;;;;;20.65;19.05;;;;;;;30.71;33.02;100131.34;5018410;28;98602;-72
2023/06/19 09:48:29;;;;;;;20.20;18.58;;;;;;;29.97;34.57;100127.50;5015123;28;96900;-72
2023/06/19 09:51:00;;;;;;;20.10;18.90;;;;;;;29.89;34.53;100126.75;4999915;28;97003;-72
2023/06/19 09:53:26;;;;;;;19.98;18.48;;;;;;;29.75;33.81;100121.09;5019803;28;98769;-72
2023/06/19 09:55:51;;;;;;;19.83;18.48;;;;;;;29.50;33.54;100125.00;4991023;28;98867;-72
2023/06/19 09:58:19;;;;;;;20.85;19.45;;;;;;;29.14;34.45;100114.72;5018719;28;96714;-73
2023/06/19 10:00:45;;;;;;;21.00;19.40;;;;;;;29.43;34.52;100122.16;4992011;28;97139;-73
2023/06/19 10:03:14;;;;;;;21.98;20.38;;;;;;;29.52;34.31;100117.53;4992496;28;98734;-73
2023/06/19 10:05:40;;;;;;;22.60;21.02;;;;;;;29.12;32.03;100108.69;5010348;28;98668;-73
2023/06/19 10:08:06;;;;;;;21.27;19.77;;;;;;;29.07;32.72;100121.88;5012826;28;97359;-73
2023/06/19 10:10:33;;;;;;;22.20;20.40;;;;;;;29.26;33.54;100117.88;4998315;28;97180;-73
2023/06/19 10:12:59;;;;;;;21.50;20.00;;;;;;;29.24;33.61;100117.22;5011125;28;98788;-73
2023/06/19 10:15:26;;;;;;;20.48;19.08;;;;;;;28.96;33.44;100124.94;5015765;28;98227;-73
2023/06/19 10:18:25;;;;;;;21.73;20.20;;;;;;;28.73;32.46;100124.88;5028939;28;96839;-77
2023/06/19 10:20:59;;;;;;;21.08;19.77;;;;;;;28.59;32.69;100105.66;5005394;28;97457;-78
2023/06/19 10:23:26;;;;;;;21.17;19.77;;;;;;;28.75;33.66;100112.03;4998013;28;98995;-78
2023/06/19 10:25:54;;;;;;;20.73;19.38;;;;;;;28.91;33.37;100108.41;4999898;28;98934;-78
2023/06/19 10:28:21;;;;;;;20.75;19.30;;;;;;;28.89;34.02;100106.75;5017770;28;97244;-78
2023/06/19 10:30:54;;;;;;;20.75;19.10;;;;;;;28.52;34.35;100101.16;5017896;28;97390;-78
2023/06/19 10:33:20;;;;;;;20.60;19.17;;;;;;;28.78;34.65;100095.47;5015311;28;98699;-78
2023/06/19 10:35:46;;;;;;;21.75;20.35;;;;;;;29.19;34.32;100116.91;5023351;27;98628;-78
2023/06/19 10:38:15;;;;;;;19.95;18.65;;;;;;;29.46;33.50;100110.97;5013146;28;97920;-78
2023/06/19 10:40:40;;;;;;;20.80;19.33;;;;;;;29.42;33.98;100111.53;5022576;28;96870;-78
2023/06/19 10:43:06;;;;;;;20.60;19.35;;;;;;;29.52;33.47;100112.97;5018490;28;99171;-82
2023/06/19 10:45:32;;;;;;;20.52;19.13;;;;;;;29.77;32.78;100104.69;5027663;28;98782;-79
2023/06/19 10:48:02;;;;;;;20.80;19.40;;;;;;;29.64;31.21;100097.22;5012054;28;96836;-79
2023/06/19 10:50:27;;;;;;;20.67;19.38;;;;;;;29.73;31.03;100098.81;5012281;28;97094;-79
2023/06/19 10:52:54;;;;;;;20.83;19.30;;;;;;;29.41;31.43;100101.72;5008919;28;98953;-66
2023/06/19 10:55:21;;;;;;;20.30;18.90;;;;;;;29.37;30.25;100101.25;5022127;28;99208;-67
2023/06/19 10:57:47;;;;;;;20.75;19.40;;;;;;;29.29;30.61;100096.75;5015944;28;97628;-67
2023/06/19 11:00:33;;;;;;;20.83;19.50;;;;;;;29.43;31.26;100088.88;5012772;28;96880;-67
2023/06/19 11:02:59;;;;;;;20.65;19.35;;;;;;;29.38;31.69;100092.13;5024081;28;99146;-67
2023/06/19 11:05:26;;;;;;;20.80;19.30;;;;;;;29.18;31.96;100091.75;5009220;28;99008;-67
2023/06/19 11:07:52;;;;;;;20.52;19.23;;;;;;;29.07;33.03;100094.88;4993407;28;98230;-67